Time;durP1;ratioP1;P1;durP2;ratioP2;P2;SDS_P1;SDS_P2;PMS_P1;PMS_P2;Temp;Humidity;BMP_temperature;BMP_pressure;BME280_temperature;BME280_humidity;BME280_pressure;Samples;Min_cycle;Max_cycle;Signal;HPM_P1;HPM_P2
2022/08/27 00:00:51;;;;;;;29.20;5.40;;;;;;;19.26;66.05;100455.47;107334;1250;71753;-75
2022/08/27 00:03:19;;;;;;;25.50;5.40;;;;;;;19.27;66.03;100459.56;107312;1251;59615;-75
2022/08/27 00:05:48;;;;;;;29.70;6.90;;;;;;;19.26;66.54;100459.95;107305;1250;63155;-75
2022/08/27 00:08:17;;;;;;;45.50;6.90;;;;;;;19.24;67.04;100462.00;107287;1250;59027;-76
2022/08/27 00:10:46;;;;;;;30.60;6.40;;;;;;;19.23;67.71;100464.60;107306;1250;59168;-74
2022/08/27 00:13:15;;;;;;;30.00;6.40;;;;;;;19.27;67.65;100465.39;107277;1250;62251;-74
2022/08/27 00:15:44;;;;;;;30.20;6.40;;;;;;;19.31;67.64;100466.29;107334;1250;61702;-74
2022/08/27 00:18:13;;;;;;;31.80;6.40;;;;;;;19.32;67.75;100466.88;107276;1250;59935;-74
2022/08/27 00:20:43;;;;;;;23.90;5.60;;;;;;;19.37;67.59;100466.76;107253;1250;63378;-75
2022/08/27 00:23:12;;;;;;;43.40;7.50;;;;;;;19.43;67.32;100464.44;107298;1250;60921;-74
2022/08/27 00:25:41;;;;;;;23.30;6.30;;;;;;;19.44;66.41;100467.34;107097;1253;61740;-76
2022/08/27 00:28:10;;;;;;;29.00;5.80;;;;;;;19.35;67.45;100464.29;107144;1251;63937;-77
2022/08/27 00:30:39;;;;;;;29.50;6.40;;;;;;;19.31;67.66;100466.89;107125;1253;60890;-76
2022/08/27 00:33:09;;;;;;;27.60;5.70;;;;;;;19.25;67.67;100471.22;107309;1250;60062;-76
2022/08/27 00:35:38;;;;;;;29.30;5.60;;;;;;;19.12;67.98;100465.48;107247;1250;74235;-75
2022/08/27 00:38:07;;;;;;;21.40;6.20;;;;;;;19.15;67.95;100474.11;107149;1251;63386;-70
2022/08/27 00:40:36;;;;;;;27.60;5.70;;;;;;;19.15;67.77;100472.55;107937;1244;62049;-68
2022/08/27 00:43:06;;;;;;;30.20;5.50;;;;;;;19.11;67.93;100464.89;108001;1243;73611;-77
2022/08/27 00:45:44;;;;;;;31.70;5.70;;;;;;;19.12;68.64;100472.34;107953;1244;61233;-76
2022/08/27 00:48:16;;;;;;;23.50;5.50;;;;;;;19.09;68.55;100474.17;108032;1243;70599;-76
2022/08/27 00:50:53;;;;;;;26.80;5.20;;;;;;;19.08;68.35;100474.94;107856;1243;74277;-76
2022/08/27 00:53:28;;;;;;;29.60;6.00;;;;;;;19.05;67.83;100479.88;107992;1243;62396;-81
2022/08/27 00:56:12;;;;;;;40.00;6.70;;;;;;;19.04;68.26;100480.47;107938;1242;60821;-80
2022/08/27 00:58:48;;;;;;;29.40;5.60;;;;;;;19.07;68.21;100482.79;107825;1244;74156;-79
2022/08/27 01:01:25;;;;;;;25.50;5.40;;;;;;;19.12;68.01;100483.20;107942;1243;72729;-80
2022/08/27 01:04:04;;;;;;;23.40;5.70;;;;;;;19.13;67.87;100479.86;108057;1241;69172;-80
2022/08/27 01:06:36;;;;;;;25.80;6.40;;;;;;;19.15;68.13;100479.14;109850;1240;63627;-80
2022/08/27 01:09:15;;;;;;;34.10;7.70;;;;;;;19.15;67.99;100479.64;108084;1239;58172;-80
2022/08/27 01:11:46;;;;;;;38.20;6.90;;;;;;;19.17;67.22;100480.63;108117;1241;59398;-78
2022/08/27 01:14:17;;;;;;;38.70;7.70;;;;;;;19.18;67.22;100479.22;108141;1241;63023;-80
2022/08/27 01:16:53;;;;;;;48.60;8.30;;;;;;;19.14;67.57;100479.70;106760;1241;1876546;-80
2022/08/27 01:19:47;;;;;;;37.10;6.50;;;;;;;19.07;68.40;100476.83;108141;1241;68825;-82
2022/08/27 01:22:35;;;;;;;41.40;7.40;;;;;;;18.96;69.00;100473.98;107905;1241;74340;-80
2022/08/27 01:25:12;;;;;;;51.30;7.60;;;;;;;18.81;69.84;100480.39;108106;1241;59446;-82
2022/08/27 01:27:43;;;;;;;43.90;7.80;;;;;;;18.70;70.70;100484.90;108105;1241;60852;-80
2022/08/27 01:30:16;;;;;;;38.80;6.80;;;;;;;18.61;70.77;100488.01;107977;1241;73261;-81
2022/08/27 01:32:45;;;;;;;36.20;7.00;;;;;;;18.56;71.13;100486.89;107995;1241;71684;-79
2022/08/27 01:35:16;;;;;;;46.60;8.70;;;;;;;18.54;71.14;100487.20;107644;1244;60425;-79
2022/08/27 01:37:50;;;;;;;49.00;9.00;;;;;;;18.52;70.90;100487.91;107702;1241;63103;-77
2022/08/27 01:40:20;;;;;;;41.70;7.40;;;;;;;18.53;70.64;100483.45;108031;1241;60480;-77
2022/08/27 01:42:54;;;;;;;50.20;7.90;;;;;;;18.55;71.51;100480.94;107938;1241;61830;-77
2022/08/27 01:45:36;;;;;;;51.70;9.30;;;;;;;18.60;70.85;100481.64;107953;1241;74054;-80
2022/08/27 01:48:09;;;;;;;41.50;7.80;;;;;;;18.70;71.40;100481.30;107974;1241;61217;-79
2022/08/27 01:50:40;;;;;;;47.00;8.00;;;;;;;18.80;71.13;100481.75;108008;1241;70638;-78
2022/08/27 01:53:15;;;;;;;42.50;8.20;;;;;;;18.84;70.92;100474.62;108052;1241;73625;-79
2022/08/27 01:55:48;;;;;;;37.70;7.10;;;;;;;18.95;70.58;100482.96;107817;1241;58998;-79
2022/08/27 01:58:20;;;;;;;44.90;7.60;;;;;;;18.97;70.64;100478.78;107702;1242;57485;-79
2022/08/27 02:00:53;;;;;;;34.20;6.80;;;;;;;18.97;70.45;100480.08;107586;1244;72823;-76
2022/08/27 02:03:25;;;;;;;38.00;7.00;;;;;;;18.98;70.20;100479.28;107724;1244;73768;-76
2022/08/27 02:05:54;;;;;;;45.40;8.70;;;;;;;19.00;69.50;100482.54;107789;1244;60381;-75
2022/08/27 02:08:23;;;;;;;51.20;7.30;;;;;;;18.95;69.09;100484.84;107737;1244;63277;-77
2022/08/27 02:10:52;;;;;;;37.50;7.40;;;;;;;18.87;68.91;100490.48;107769;1243;58953;-79
2022/08/27 02:13:21;;;;;;;38.80;6.80;;;;;;;18.80;68.94;100493.79;107826;1244;59233;-77
2022/08/27 02:15:50;;;;;;;40.40;7.30;;;;;;;18.71;69.04;100493.70;107617;1244;63059;-77
2022/08/27 02:18:19;;;;;;;32.60;6.40;;;;;;;18.64;69.21;100490.05;107736;1244;61657;-74
2022/08/27 02:20:49;;;;;;;36.60;7.10;;;;;;;18.54;69.33;100491.30;107636;1244;70500;-77
2022/08/27 02:23:18;;;;;;;44.60;7.30;;;;;;;18.46;69.73;100490.95;107722;1244;74683;-75
2022/08/27 02:25:46;;;;;;;41.40;8.10;;;;;;;18.38;70.24;100492.03;107791;1243;58877;-76
2022/08/27 02:28:15;;;;;;;34.20;7.60;;;;;;;18.30;70.12;100496.17;107850;1244;61159;-74
2022/08/27 02:30:44;;;;;;;40.40;7.50;;;;;;;18.30;70.38;100497.76;107847;1244;73407;-73
2022/08/27 02:33:14;;;;;;;28.20;6.30;;;;;;;18.33;69.92;100498.41;107743;1244;62172;-75
2022/08/27 02:35:43;;;;;;;28.00;5.90;;;;;;;18.29;70.23;100510.05;107825;1244;70556;-75
2022/08/27 02:38:12;;;;;;;25.20;5.90;;;;;;;18.35;68.83;100504.44;107844;1244;74316;-74
2022/08/27 02:40:41;;;;;;;27.20;7.00;;;;;;;18.28;68.80;100508.89;107827;1244;61760;-74
2022/08/27 02:43:10;;;;;;;30.90;6.60;;;;;;;18.21;69.12;100510.39;107852;1244;59045;-73
2022/08/27 02:45:43;;;;;;;;;;;;;;;18.22;68.59;100512.29;107877;1244;63007;-75
2022/08/27 02:48:12;;;;;;;33.60;6.40;;;;;;;18.23;68.93;100515.68;107802;1244;70741;-75
2022/08/27 02:50:42;;;;;;;29.00;6.30;;;;;;;18.34;69.62;100509.77;107923;1243;59695;-74
2022/08/27 02:53:12;;;;;;;25.00;6.60;;;;;;;18.37;69.16;100507.11;107842;1244;72377;-74
2022/08/27 02:55:40;;;;;;;30.90;7.00;;;;;;;18.43;68.49;100505.16;107870;1244;60784;-73
2022/08/27 02:58:14;;;;;;;33.30;6.90;;;;;;;18.45;68.01;100503.70;107827;1244;61783;-78
2022/08/27 03:00:44;;;;;;;24.90;6.20;;;;;;;18.42;68.39;100502.27;107905;1244;73249;-78
2022/08/27 03:03:13;;;;;;;30.00;6.00;;;;;;;18.45;69.83;100505.66;108020;1242;73217;-78
2022/08/27 03:05:42;;;;;;;25.60;5.60;;;;;;;18.45;70.18;100505.55;108033;1244;59725;-76
2022/08/27 03:08:10;;;;;;;21.60;6.10;;;;;;;18.47;68.13;100510.55;107740;1244;73042;-77
2022/08/27 03:10:40;;;;;;;23.80;6.00;;;;;;;18.42;67.76;100509.86;107952;1244;58271;-80
2022/08/27 03:13:09;;;;;;;28.30;6.30;;;;;;;18.33;68.12;100516.30;107880;1243;59150;-80
2022/08/27 03:15:38;;;;;;;25.10;6.30;;;;;;;18.24;68.28;100518.13;108167;1244;62962;-79
2022/08/27 03:18:18;;;;;;;33.70;6.10;;;;;;;18.15;68.93;100512.64;107977;1244;71635;-78
2022/08/27 03:20:53;;;;;;;24.00;6.60;;;;;;;18.05;69.73;100515.10;107791;1244;71341;-76
2022/08/27 03:23:25;;;;;;;28.10;5.30;;;;;;;18.08;70.69;100518.80;108004;1243;71830;-77
2022/08/27 03:25:58;;;;;;;22.50;6.50;;;;;;;18.09;71.83;100517.65;108023;1244;59133;-79
2022/08/27 03:28:32;;;;;;;29.30;6.40;;;;;;;18.08;71.94;100510.34;107851;1244;60406;-79
2022/08/27 03:31:04;;;;;;;25.40;6.60;;;;;;;18.08;71.34;100513.55;107804;1244;62990;-78
2022/08/27 03:33:37;;;;;;;24.80;6.20;;;;;;;18.05;72.47;100508.60;107904;1244;61497;-79
2022/08/27 03:36:07;;;;;;;30.20;6.50;;;;;;;18.05;74.44;100509.72;107760;1244;59190;-77
2022/08/27 03:38:37;;;;;;;25.60;5.90;;;;;;;18.09;74.41;100514.17;107744;1244;64069;-78
2022/08/27 03:41:06;;;;;;;33.30;7.20;;;;;;;18.13;73.75;100512.86;107813;1244;58945;-76
2022/08/27 03:43:35;;;;;;;43.80;7.10;;;;;;;18.14;74.02;100510.05;107923;1243;61049;-78
2022/08/27 03:46:07;;;;;;;27.80;5.90;;;;;;;18.16;73.80;100513.64;107865;1244;71720;-76
2022/08/27 03:48:36;;;;;;;28.00;5.80;;;;;;;18.15;74.57;100511.88;107884;1244;71410;-76
2022/08/27 03:51:09;;;;;;;37.20;6.60;;;;;;;18.17;74.70;100512.08;107764;1244;61659;-74
2022/08/27 03:53:40;;;;;;;23.80;6.80;;;;;;;18.19;74.69;100514.15;107544;1244;73910;-77
2022/08/27 03:56:09;;;;;;;24.30;5.90;;;;;;;18.23;74.35;100513.33;107802;1245;59651;-79
2022/08/27 03:58:38;;;;;;;22.20;5.50;;;;;;;18.26;70.22;100515.67;108170;1244;59041;-79
2022/08/27 04:01:08;;;;;;;25.20;5.60;;;;;;;18.14;69.46;100519.80;107971;1244;62840;-76
2022/08/27 04:03:36;;;;;;;29.00;5.90;;;;;;;18.00;69.73;100523.03;107885;1244;62771;-76
2022/08/27 04:06:06;;;;;;;31.10;7.10;;;;;;;17.97;69.80;100522.13;107858;1243;69916;-78
2022/08/27 04:08:35;;;;;;;21.30;6.30;;;;;;;17.96;69.91;100520.65;107806;1244;74046;-76
2022/08/27 04:11:05;;;;;;;25.50;5.70;;;;;;;17.99;69.69;100518.70;107835;1244;60994;-77
2022/08/27 04:13:34;;;;;;;23.20;5.80;;;;;;;17.98;69.69;100519.33;107803;1244;57434;-79
2022/08/27 04:16:05;;;;;;;20.70;5.90;;;;;;;17.98;69.75;100515.10;107933;1244;62978;-77
2022/08/27 04:18:34;;;;;;;26.20;6.60;;;;;;;18.00;70.00;100512.33;107888;1244;71683;-75
2022/08/27 04:21:12;;;;;;;18.70;5.50;;;;;;;18.10;70.05;100515.24;107855;1244;59509;-76
2022/08/27 04:23:42;;;;;;;19.60;5.30;;;;;;;18.20;69.46;100516.48;107848;1243;63219;-75
2022/08/27 04:26:11;;;;;;;24.30;6.70;;;;;;;18.24;68.68;100520.43;107783;1243;60959;-76
2022/08/27 04:28:40;;;;;;;18.30;6.10;;;;;;;18.22;68.48;100521.70;107693;1244;60884;-73
2022/08/27 04:31:14;;;;;;;28.20;6.20;;;;;;;18.22;68.02;100522.90;107642;1244;74583;-76
2022/08/27 04:33:44;;;;;;;22.10;6.20;;;;;;;18.17;68.15;100524.27;107707;1244;61482;-76
2022/08/27 04:36:19;;;;;;;24.00;5.60;;;;;;;18.19;68.30;100527.68;107773;1244;70929;-78
2022/08/27 04:38:49;;;;;;;24.20;6.30;;;;;;;18.29;68.15;100532.44;107692;1244;62940;-76
2022/08/27 04:41:18;;;;;;;25.00;5.80;;;;;;;18.42;67.90;100532.80;107737;1243;58776;-76
2022/08/27 04:43:57;;;;;;;22.90;6.70;;;;;;;18.57;67.32;100533.45;107818;1244;60519;-76
2022/08/27 04:46:33;;;;;;;26.40;6.30;;;;;;;18.68;66.78;100529.45;107811;1244;62848;-76
2022/08/27 04:49:08;;;;;;;19.90;6.10;;;;;;;18.81;66.78;100528.95;107749;1242;72216;-75
2022/08/27 04:51:39;;;;;;;20.60;6.90;;;;;;;18.93;66.19;100529.39;107837;1243;71335;-75
2022/08/27 04:54:08;;;;;;;27.80;5.90;;;;;;;19.04;66.01;100525.45;107632;1244;65137;-74
2022/08/27 04:56:38;;;;;;;24.30;6.10;;;;;;;19.16;66.11;100523.33;107711;1244;59698;-76
2022/08/27 04:59:09;;;;;;;18.50;5.90;;;;;;;19.24;66.13;100523.13;107954;1244;61298;-78
2022/08/27 05:01:40;;;;;;;24.30;6.50;;;;;;;19.30;65.79;100522.94;107503;1244;62691;-76
2022/08/27 05:04:13;;;;;;;23.80;6.90;;;;;;;19.40;65.42;100524.45;108103;1244;61635;-78
2022/08/27 05:06:44;;;;;;;18.40;6.10;;;;;;;19.53;63.52;100521.64;107952;1244;69966;-72
2022/08/27 05:09:14;;;;;;;20.30;6.20;;;;;;;19.51;63.09;100523.58;107921;1243;63773;-67
2022/08/27 05:11:45;;;;;;;24.40;5.70;;;;;;;19.48;63.38;100520.73;107943;1244;58764;-69
2022/08/27 05:14:15;;;;;;;23.00;6.50;;;;;;;19.48;63.60;100520.77;107876;1244;59004;-68
2022/08/27 05:16:45;;;;;;;16.30;6.00;;;;;;;19.38;63.44;100517.77;107858;1243;63032;-69
2022/08/27 05:19:14;;;;;;;23.30;5.70;;;;;;;19.42;62.51;100514.41;107929;1244;72189;-71
2022/08/27 05:21:48;;;;;;;18.00;6.20;;;;;;;19.43;62.10;100515.00;107944;1244;60386;-69
2022/08/27 05:24:18;;;;;;;23.00;6.60;;;;;;;19.45;61.91;100520.27;107696;1244;63257;-67
2022/08/27 05:26:48;;;;;;;23.80;6.70;;;;;;;19.51;61.52;100520.95;107873;1244;62130;-68
2022/08/27 05:29:17;;;;;;;18.30;5.70;;;;;;;19.57;61.21;100517.46;107994;1244;58945;-72
2022/08/27 05:31:47;;;;;;;17.90;6.50;;;;;;;19.74;60.70;100516.08;108007;1244;62201;-71
2022/08/27 05:34:16;;;;;;;15.60;5.40;;;;;;;19.81;60.16;100520.14;107968;1244;71704;-70
2022/08/27 05:36:50;;;;;;;19.50;5.50;;;;;;;19.79;60.17;100524.23;108005;1244;70253;-70
2022/08/27 05:39:20;;;;;;;18.20;5.80;;;;;;;19.78;59.60;100521.88;107753;1245;63644;-70
2022/08/27 05:41:51;;;;;;;18.00;6.40;;;;;;;19.87;59.42;100527.77;108001;1244;60549;-67
2022/08/27 05:44:20;;;;;;;21.00;6.20;;;;;;;19.91;59.21;100526.28;107915;1243;60273;-71
2022/08/27 05:47:09;;;;;;;18.60;6.20;;;;;;;20.00;59.12;100526.89;107915;1244;63493;-71
2022/08/27 05:49:38;;;;;;;30.60;6.70;;;;;;;20.11;58.57;100526.98;108138;1244;61628;-71
2022/08/27 05:52:10;;;;;;;20.90;6.40;;;;;;;20.09;58.59;100526.85;108270;1244;59961;-71
2022/08/27 05:54:39;;;;;;;21.30;6.00;;;;;;;20.09;58.35;100529.30;108314;1244;73393;-73
2022/08/27 05:57:08;;;;;;;22.20;8.40;;;;;;;20.25;58.14;100530.27;107908;1244;58937;-73
2022/08/27 06:02:24;;;;;;;15.50;5.60;;;;;;;20.43;56.60;100537.27;108219;1244;62181;-73
2022/08/27 06:04:53;;;;;;;16.70;5.40;;;;;;;20.33;56.80;100536.45;108178;1244;71211;-74
2022/08/27 06:07:23;;;;;;;22.40;5.90;;;;;;;20.31;56.73;100534.37;108163;1244;71091;-74
2022/08/27 06:09:51;;;;;;;27.30;6.30;;;;;;;20.25;57.08;100532.05;108009;1244;63460;-74
2022/08/27 06:12:20;;;;;;;20.10;6.50;;;;;;;20.32;57.04;100533.86;108090;1244;59137;-74
2022/08/27 06:14:56;;;;;;;17.20;5.70;;;;;;;20.39;56.96;100534.71;107990;1244;58359;-73
2022/08/27 06:17:25;;;;;;;17.00;5.70;;;;;;;20.49;56.64;100540.38;107953;1244;63029;-76
2022/08/27 06:19:55;;;;;;;16.90;5.90;;;;;;;20.54;56.26;100540.41;107927;1244;72596;-76
2022/08/27 06:22:24;;;;;;;13.90;5.40;;;;;;;20.56;55.95;100542.41;107965;1244;68813;-75
2022/08/27 06:24:53;;;;;;;13.30;4.90;;;;;;;20.58;55.61;100538.18;107742;1244;71597;-74
2022/08/27 06:27:21;;;;;;;19.00;5.70;;;;;;;20.53;55.91;100540.45;107889;1244;61891;-74
2022/08/27 06:29:50;;;;;;;14.40;6.20;;;;;;;20.63;56.05;100538.39;107944;1244;59155;-75
2022/08/27 06:32:19;;;;;;;16.60;5.90;;;;;;;20.80;55.47;100535.92;107948;1244;62983;-73
2022/08/27 06:34:48;;;;;;;17.80;6.10;;;;;;;21.00;55.41;100540.61;107878;1244;61723;-75
2022/08/27 06:37:17;;;;;;;15.70;6.10;;;;;;;21.13;54.20;100541.58;107822;1244;60019;-72
2022/08/27 06:39:46;;;;;;;14.10;6.90;;;;;;;21.31;53.24;100546.06;107919;1244;73260;-72
2022/08/27 06:42:15;;;;;;;16.30;7.00;;;;;;;21.22;52.32;100540.02;107533;1244;61875;-75
2022/08/27 06:44:47;;;;;;;15.80;7.20;;;;;;;21.48;52.47;100539.80;107851;1244;61705;-74
2022/08/27 06:47:16;;;;;;;18.70;7.30;;;;;;;21.65;52.23;100539.31;107894;1244;63803;-76
2022/08/27 06:49:48;;;;;;;15.30;6.20;;;;;;;21.83;51.96;100538.48;107943;1244;62302;-75
2022/08/27 06:52:17;;;;;;;12.70;6.00;;;;;;;22.00;51.35;100538.95;107988;1243;61642;-74
2022/08/27 06:54:46;;;;;;;14.10;6.10;;;;;;;22.14;50.46;100537.23;108003;1244;74035;-75
2022/08/27 06:57:15;;;;;;;12.60;5.30;;;;;;;22.30;50.81;100528.13;107951;1243;59944;-79
2022/08/27 06:59:54;;;;;;;14.70;5.10;;;;;;;22.42;50.11;100533.67;107953;1244;62592;-75
2022/08/27 07:02:23;;;;;;;18.50;5.10;;;;;;;22.58;49.33;100536.33;107969;1244;63583;-76
2022/08/27 07:04:53;;;;;;;16.40;5.30;;;;;;;22.66;49.56;100540.57;107994;1244;71458;-76
2022/08/27 07:07:23;;;;;;;18.20;5.60;;;;;;;22.83;49.21;100537.88;107961;1244;70972;-73
2022/08/27 07:10:04;;;;;;;18.70;6.00;;;;;;;22.90;49.05;100541.34;107914;1244;63837;-76
2022/08/27 07:12:33;;;;;;;10.20;5.30;;;;;;;22.90;49.12;100542.56;107766;1244;57396;-73
2022/08/27 07:15:02;;;;;;;17.60;4.90;;;;;;;22.89;48.43;100540.17;107738;1244;60161;-72
2022/08/27 07:17:32;;;;;;;12.70;4.20;;;;;;;22.95;47.99;100541.38;107903;1244;72655;-76
2022/08/27 07:20:02;;;;;;;13.80;4.80;;;;;;;22.99;47.53;100539.27;108048;1244;72281;-72
2022/08/27 07:22:30;;;;;;;14.10;4.70;;;;;;;23.02;47.33;100537.84;107884;1244;70350;-72
2022/08/27 07:24:59;;;;;;;16.00;4.70;;;;;;;23.10;47.23;100535.71;107720;1244;73850;-74
2022/08/27 07:27:28;;;;;;;19.80;4.20;;;;;;;23.13;47.11;100531.64;107648;1244;59089;-74
2022/08/27 07:29:58;;;;;;;14.80;4.70;;;;;;;23.32;47.03;100528.40;107677;1244;58903;-72
2022/08/27 07:32:29;;;;;;;11.40;4.40;;;;;;;23.49;46.63;100529.21;108190;1244;73683;-74
2022/08/27 07:34:59;;;;;;;12.10;5.10;;;;;;;23.59;46.13;100527.75;108686;1243;60921;-72
2022/08/27 07:37:28;;;;;;;14.00;4.80;;;;;;;23.69;45.70;100528.65;107748;1247;60365;-73
2022/08/27 07:40:07;;;;;;;15.30;4.70;;;;;;;23.77;45.95;100531.96;107757;1244;63952;-73
2022/08/27 07:45:29;;;;;;;9.90;4.70;;;;;;;23.96;45.96;100530.43;107707;1244;59076;-73
2022/08/27 07:47:58;;;;;;;16.20;5.10;;;;;;;24.02;45.73;100526.85;107893;1244;63027;-72
2022/08/27 07:50:27;;;;;;;11.90;5.20;;;;;;;23.88;45.61;100522.02;107720;1244;71437;-73
2022/08/27 07:52:56;;;;;;;16.40;5.60;;;;;;;24.01;45.89;100521.96;107743;1245;70617;-73
2022/08/27 07:55:24;;;;;;;14.10;5.00;;;;;;;23.98;45.88;100510.53;107909;1244;73960;-72
2022/08/27 07:57:53;;;;;;;19.60;5.50;;;;;;;23.99;45.95;100515.55;107746;1243;58784;-70
2022/08/27 08:00:22;;;;;;;15.20;5.80;;;;;;;24.12;45.53;100510.72;107863;1244;59135;-72
2022/08/27 08:02:51;;;;;;;16.30;5.40;;;;;;;24.04;45.81;100512.64;107800;1241;62985;-72
2022/08/27 08:05:20;;;;;;;19.10;5.40;;;;;;;24.20;45.46;100512.13;107732;1244;60972;-71
2022/08/27 08:07:50;;;;;;;16.00;5.70;;;;;;;24.32;44.90;100512.63;107986;1241;71446;-71
2022/08/27 08:10:22;;;;;;;16.00;5.60;;;;;;;24.34;45.34;100508.58;108169;1241;64064;-74
2022/08/27 08:12:50;;;;;;;15.60;4.80;;;;;;;24.43;45.22;100511.03;107963;1242;61252;-72
2022/08/27 08:15:19;;;;;;;16.70;5.20;;;;;;;24.51;45.36;100505.94;108144;1241;57503;-72
2022/08/27 08:17:49;;;;;;;13.70;5.10;;;;;;;24.68;45.01;100510.65;108136;1241;73914;-70
2022/08/27 08:20:18;;;;;;;15.20;5.70;;;;;;;24.77;44.67;100510.33;108047;1241;71740;-72
2022/08/27 08:23:07;;;;;;;21.00;5.80;;;;;;;24.82;44.45;100510.11;107990;1241;59628;-71
2022/08/27 08:25:38;;;;;;;12.30;5.00;;;;;;;25.06;44.19;100507.20;107784;1244;73904;-68
2022/08/27 08:28:10;;;;;;;18.30;5.40;;;;;;;25.22;44.20;100505.80;108106;1241;60305;-73
2022/08/27 08:30:43;;;;;;;14.70;5.10;;;;;;;25.41;43.93;100505.71;108115;1241;59443;-72
2022/08/27 08:33:12;;;;;;;13.70;5.10;;;;;;;25.57;43.41;100498.02;107539;1244;73724;-72
2022/08/27 08:35:41;;;;;;;10.30;4.60;;;;;;;25.68;43.03;100498.50;108108;1241;62011;-73
2022/08/27 08:38:10;;;;;;;10.00;4.10;;;;;;;25.79;42.52;100498.29;108052;1241;60022;-76
2022/08/27 08:40:58;;;;;;;13.80;4.10;;;;;;;25.92;42.06;100498.62;108155;1241;63176;-72
2022/08/27 08:43:39;;;;;;;13.80;4.50;;;;;;;26.18;40.67;100496.41;107880;1241;59041;-72
2022/08/27 08:46:16;;;;;;;14.60;4.40;;;;;;;26.41;39.85;100497.39;108077;1241;60977;-73
2022/08/27 08:48:51;;;;;;;12.30;4.90;;;;;;;26.51;38.59;100502.95;108080;1241;73689;-71
2022/08/27 08:51:41;;;;;;;11.60;4.10;;;;;;;26.56;38.18;100500.46;108134;1241;62412;-70
2022/08/27 08:54:19;;;;;;;10.00;3.70;;;;;;;26.62;37.27;100502.80;107951;1244;69810;-67
2022/08/27 08:57:34;;;;;;;10.60;4.30;;;;;;;26.77;37.39;100498.23;107920;1241;72289;-73
2022/08/27 09:00:11;;;;;;;14.00;4.60;;;;;;;26.81;36.59;100495.61;107870;1241;58773;-71
2022/08/27 09:02:47;;;;;;;10.50;4.20;;;;;;;26.99;36.35;100500.48;108144;1241;59007;-73
2022/08/27 09:05:18;;;;;;;9.20;3.80;;;;;;;27.02;35.44;100499.86;108279;1241;72853;-73
2022/08/27 09:08:07;;;;;;;10.00;3.70;;;;;;;26.91;35.69;100501.42;107871;1244;62010;-72
2022/08/27 09:11:27;;;;;;;11.20;4.20;;;;;;;27.01;35.76;100502.11;107931;1241;69083;-70
2022/08/27 09:14:23;;;;;;;13.10;4.00;;;;;;;27.12;35.43;100499.86;107976;1241;63148;-71
2022/08/27 09:16:52;;;;;;;12.60;4.40;;;;;;;27.12;34.87;100500.76;108066;1241;57596;-71
2022/08/27 09:19:26;;;;;;;14.10;5.10;;;;;;;27.15;34.91;100501.14;108014;1241;61244;-71
2022/08/27 09:22:10;;;;;;;14.20;4.50;;;;;;;27.20;34.77;100502.56;108081;1241;63607;-73
2022/08/27 09:24:45;;;;;;;15.90;4.70;;;;;;;27.18;34.49;100503.41;108250;1242;70472;-69
2022/08/27 09:27:14;;;;;;;12.90;4.50;;;;;;;27.13;33.94;100504.33;108315;1242;70874;-73
2022/08/27 09:29:50;;;;;;;9.70;4.30;;;;;;;27.18;34.36;100507.70;108155;1241;63421;-73
2022/08/27 09:32:30;;;;;;;9.40;3.50;;;;;;;27.43;34.35;100511.10;108196;1241;58832;-73
2022/08/27 09:35:04;;;;;;;7.70;3.50;;;;;;;27.55;33.76;100512.14;108232;1241;59023;-74
2022/08/27 09:37:43;;;;;;;11.90;3.70;;;;;;;27.64;33.32;100509.71;107724;1242;62216;-77
2022/08/27 09:40:32;;;;;;;10.90;3.70;;;;;;;27.62;33.11;100507.80;108158;1241;72268;-74
2022/08/27 09:43:07;;;;;;;16.60;3.80;;;;;;;27.71;33.40;100511.70;108225;1241;61453;-73
2022/08/27 09:45:36;;;;;;;12.40;3.90;;;;;;;27.85;33.38;100511.00;108211;1241;73124;-72
2022/08/27 09:48:18;;;;;;;12.40;3.90;;;;;;;27.99;32.99;100511.04;108166;1241;61667;-73
2022/08/27 09:50:56;;;;;;;7.80;3.70;;;;;;;28.12;32.91;100515.17;108143;1241;60972;-73
2022/08/27 09:53:43;;;;;;;9.10;3.80;;;;;;;28.26;32.62;100511.59;108253;1241;63406;-73
2022/08/27 09:56:35;;;;;;;12.80;4.40;;;;;;;28.30;32.45;100511.23;108001;1241;60975;-74
2022/08/27 09:59:32;;;;;;;10.50;3.70;;;;;;;28.37;32.39;100508.15;107949;1244;60435;-75
2022/08/27 10:02:14;;;;;;;10.00;4.10;;;;;;;28.58;31.81;100507.14;108054;1241;73903;-73
2022/08/27 10:04:51;;;;;;;13.70;4.70;;;;;;;28.69;32.08;100508.58;108395;1241;58991;-77
2022/08/27 10:07:29;;;;;;;17.60;4.10;;;;;;;28.80;31.82;100507.24;107870;1244;58659;-72
2022/08/27 10:10:12;;;;;;;13.60;5.10;;;;;;;28.87;31.49;100502.52;108212;1241;63011;-71
2022/08/27 10:13:04;;;;;;;7.70;4.40;;;;;;;28.90;31.54;100499.68;108328;1241;72965;-72
2022/08/27 10:16:16;;;;;;;9.20;3.90;;;;;;;28.92;31.52;100491.44;107666;1241;70200;-73
2022/08/27 10:19:18;;;;;;;15.90;4.60;;;;;;;29.10;31.18;100494.98;107858;1244;72293;-73
2022/08/27 10:21:59;;;;;;;9.30;4.10;;;;;;;29.30;31.03;100496.17;107873;1241;61221;-75
2022/08/27 10:24:56;;;;;;;12.70;3.90;;;;;;;29.42;30.62;100499.14;108101;1243;59035;-75
2022/08/27 10:27:54;;;;;;;10.80;4.40;;;;;;;29.42;30.59;100498.38;108010;1241;62176;-74
2022/08/27 10:31:16;;;;;;;13.90;4.00;;;;;;;29.58;30.37;100497.90;107921;1244;71416;-75
2022/08/27 10:34:19;;;;;;;12.60;4.20;;;;;;;29.60;29.96;100500.73;108187;1241;60472;-74
2022/08/27 10:37:09;;;;;;;13.80;3.70;;;;;;;29.81;29.19;100493.24;108195;1241;73938;-73
2022/08/27 10:40:29;;;;;;;14.40;4.30;;;;;;;29.79;29.02;100503.72;108142;1244;60195;-74
2022/08/27 10:43:44;;;;;;;10.80;4.10;;;;;;;29.81;29.08;100495.61;108247;1241;61067;-73
2022/08/27 10:46:57;;;;;;;16.10;4.50;;;;;;;29.83;28.64;100488.60;108364;1241;73406;-69
2022/08/27 10:49:50;;;;;;;;;;;;;;;29.93;29.07;100493.79;108409;1241;62707;-73
2022/08/27 10:52:33;;;;;;;12.60;4.20;;;;;;;29.92;28.68;100499.64;108343;1241;69779;-73
2022/08/27 10:55:25;;;;;;;11.80;4.00;;;;;;;29.88;28.69;100499.99;108238;1243;72737;-77
2022/08/27 10:58:18;;;;;;;13.70;5.10;;;;;;;29.84;29.06;100501.60;108221;1244;58695;-75
2022/08/27 11:01:30;;;;;;;15.60;4.40;;;;;;;29.72;29.04;100503.42;108312;1241;57420;-72
2022/08/27 11:04:07;;;;;;;8.20;4.40;;;;;;;29.66;29.26;100495.85;108350;1241;71678;-72
2022/08/27 11:07:05;;;;;;;16.40;4.10;;;;;;;29.75;29.32;100498.73;108204;1241;62007;-72
2022/08/27 11:10:07;;;;;;;14.60;4.40;;;;;;;30.01;29.22;100492.69;107891;1244;59201;-73
2022/08/27 11:12:43;;;;;;;11.30;3.60;;;;;;;30.32;28.32;100492.00;108299;1241;63374;-74
2022/08/27 11:15:29;;;;;;;10.30;3.90;;;;;;;30.47;28.49;100491.04;107793;1241;60982;-74
2022/08/27 11:18:40;;;;;;;10.80;4.90;;;;;;;30.88;28.30;100484.65;108123;1244;57443;-75
2022/08/27 11:21:16;;;;;;;14.90;3.80;;;;;;;31.28;27.35;100484.45;107882;1244;73557;-74
2022/08/27 11:24:14;;;;;;;9.70;4.10;;;;;;;31.72;27.00;100485.19;108084;1244;72878;-72
2022/08/27 11:26:45;;;;;;;18.70;4.20;;;;;;;31.90;26.30;100478.77;108038;1241;59533;-73
2022/08/27 11:29:32;;;;;;;12.50;4.10;;;;;;;32.26;26.28;100481.70;108097;1241;63666;-73
2022/08/27 11:32:36;;;;;;;16.30;3.50;;;;;;;32.26;26.20;100482.63;107885;1244;61212;-74
2022/08/27 11:35:36;;;;;;;7.10;3.30;;;;;;;32.09;26.05;100484.65;108263;1244;57509;-72
2022/08/27 11:38:29;;;;;;;13.40;3.60;;;;;;;31.61;26.09;100479.24;108112;1241;71339;-74
2022/08/27 11:41:13;;;;;;;18.90;4.00;;;;;;;31.67;26.68;100478.86;108282;1241;71879;-75
2022/08/27 11:43:46;;;;;;;15.00;4.00;;;;;;;31.66;26.39;100474.45;108205;1241;59620;-72
2022/08/27 11:46:25;;;;;;;12.90;3.60;;;;;;;31.84;26.16;100474.84;108380;1241;73159;-76
2022/08/27 11:49:03;;;;;;;10.90;3.60;;;;;;;32.04;25.67;100477.93;108341;1241;62029;-72
2022/08/27 11:51:38;;;;;;;12.50;3.80;;;;;;;31.91;25.80;100480.20;108058;1241;61842;-72